YV2355 SVVL-SVVG
Flight info
| Callsign | YV2355 |
|---|---|
| Flight time | 0h 41m |
| Altitude | 10000 |
| Route | VRA ERIXO W41 EVG |
| Aircraft | C208/L-SDC/C |
Departure
| Time | 2026-04-18 00:53 |
|---|---|
| Airport | Dr. Antonio Nicolás Briceño Airport (SVVL) |
Arrival
| Time | 2026-04-18 01:35 |
|---|---|
| Airport | Juan Pablo Pérez Alfonso Airport (SVVG) |
| Time | Latitude | Longitude | Altitude | Speed | Heading |
|---|---|---|---|---|---|
| 2026-04-18 00:32 | 9.34054 | -70.58597 | 1884 ft | 0 kts | 150° |
| 2026-04-18 00:46 | 9.34052 | -70.58596 | 1884 ft | 1 kts | 150° |
| 2026-04-18 00:47 | 9.34040 | -70.58589 | 1885 ft | 4 kts | 151° |
| 2026-04-18 00:47 | 9.34010 | -70.58572 | 1883 ft | 6 kts | 147° |
| 2026-04-18 00:47 | 9.33982 | -70.58529 | 1883 ft | 9 kts | 107° |
| 2026-04-18 00:47 | 9.33962 | -70.58485 | 1889 ft | 6 kts | 137° |
| 2026-04-18 00:48 | 9.33930 | -70.58482 | 1892 ft | 4 kts | 193° |
| 2026-04-18 00:48 | 9.33906 | -70.58488 | 1894 ft | 3 kts | 194° |
| 2026-04-18 00:48 | 9.33890 | -70.58492 | 1896 ft | 1 kts | 194° |
| 2026-04-18 00:49 | 9.33801 | -70.58522 | 1906 ft | 10 kts | 198° |
| 2026-04-18 00:49 | 9.33728 | -70.58544 | 1911 ft | 12 kts | 196° |
| 2026-04-18 00:49 | 9.33640 | -70.58571 | 1921 ft | 15 kts | 197° |
| 2026-04-18 00:49 | 9.33538 | -70.58603 | 1927 ft | 16 kts | 196° |
| 2026-04-18 00:50 | 9.33438 | -70.58634 | 1935 ft | 14 kts | 197° |
| 2026-04-18 00:50 | 9.33348 | -70.58661 | 1943 ft | 13 kts | 196° |
| 2026-04-18 00:50 | 9.33265 | -70.58690 | 1949 ft | 12 kts | 211° |
| 2026-04-18 00:50 | 9.33219 | -70.58705 | 1952 ft | 4 kts | 76° |
| 2026-04-18 00:51 | 9.33274 | -70.58684 | 1948 ft | 14 kts | 18° |
| 2026-04-18 00:51 | 9.33444 | -70.58631 | 1934 ft | 44 kts | 17° |
| 2026-04-18 00:51 | 9.33863 | -70.58503 | 1895 ft | 79 kts | 17° |
| 2026-04-18 00:51 | 9.34439 | -70.58327 | 1921 ft | 90 kts | 17° |
| 2026-04-18 00:52 | 9.35035 | -70.58159 | 2034 ft | 88 kts | 13° |
| 2026-04-18 00:52 | 9.35639 | -70.57999 | 2109 ft | 90 kts | 18° |
| 2026-04-18 00:52 | 9.36224 | -70.57789 | 2210 ft | 90 kts | 22° |
| 2026-04-18 00:52 | 9.36830 | -70.57591 | 2303 ft | 95 kts | 14° |
| 2026-04-18 00:53 | 9.37502 | -70.57386 | 2382 ft | 106 kts | 17° |
| 2026-04-18 00:53 | 9.38236 | -70.57158 | 2466 ft | 116 kts | 17° |
| 2026-04-18 00:53 | 9.39037 | -70.56910 | 2595 ft | 125 kts | 17° |
| 2026-04-18 00:53 | 9.39890 | -70.56645 | 2735 ft | 131 kts | 17° |
| 2026-04-18 00:54 | 9.40782 | -70.56368 | 2874 ft | 137 kts | 18° |
| 2026-04-18 00:54 | 9.41707 | -70.56093 | 3009 ft | 141 kts | 13° |
| 2026-04-18 00:54 | 9.42679 | -70.56208 | 3138 ft | 145 kts | 336° |
| 2026-04-18 00:54 | 9.43469 | -70.56819 | 3267 ft | 147 kts | 314° |
| 2026-04-18 00:55 | 9.44190 | -70.57552 | 3445 ft | 146 kts | 316° |
| 2026-04-18 00:55 | 9.44912 | -70.58268 | 3622 ft | 146 kts | 316° |
| 2026-04-18 00:55 | 9.45628 | -70.58989 | 3814 ft | 144 kts | 316° |
| 2026-04-18 00:55 | 9.46336 | -70.59691 | 4011 ft | 142 kts | 316° |
| 2026-04-18 00:56 | 9.47037 | -70.60393 | 4208 ft | 141 kts | 316° |
| 2026-04-18 00:56 | 9.47741 | -70.61088 | 4408 ft | 142 kts | 316° |
| 2026-04-18 00:56 | 9.48439 | -70.61787 | 4606 ft | 141 kts | 316° |
| 2026-04-18 00:56 | 9.49139 | -70.62484 | 4816 ft | 140 kts | 317° |
| 2026-04-18 00:57 | 9.49832 | -70.63175 | 5006 ft | 139 kts | 317° |
| 2026-04-18 00:57 | 9.50515 | -70.63877 | 5206 ft | 140 kts | 309° |
| 2026-04-18 00:57 | 9.50842 | -70.64791 | 5403 ft | 141 kts | 273° |
| 2026-04-18 00:57 | 9.50653 | -70.65756 | 5604 ft | 141 kts | 241° |
| 2026-04-18 00:58 | 9.50040 | -70.66522 | 5808 ft | 140 kts | 225° |
| 2026-04-18 00:58 | 9.49397 | -70.67248 | 6003 ft | 140 kts | 226° |
| 2026-04-18 00:58 | 9.48743 | -70.67987 | 6203 ft | 140 kts | 226° |
| 2026-04-18 00:58 | 9.48089 | -70.68717 | 6402 ft | 140 kts | 226° |
| 2026-04-18 00:59 | 9.47437 | -70.69455 | 6604 ft | 140 kts | 226° |
| 2026-04-18 00:59 | 9.46780 | -70.70193 | 6804 ft | 142 kts | 226° |
| 2026-04-18 00:59 | 9.46128 | -70.70928 | 7001 ft | 139 kts | 226° |
| 2026-04-18 00:59 | 9.45484 | -70.71648 | 7197 ft | 137 kts | 226° |
| 2026-04-18 01:00 | 9.44847 | -70.72364 | 7383 ft | 135 kts | 227° |
| 2026-04-18 01:00 | 9.44218 | -70.73068 | 7556 ft | 136 kts | 226° |
| 2026-04-18 01:00 | 9.43581 | -70.73787 | 7684 ft | 139 kts | 227° |
| 2026-04-18 01:00 | 9.42927 | -70.74522 | 7812 ft | 142 kts | 226° |
| 2026-04-18 01:01 | 9.42264 | -70.75266 | 7941 ft | 143 kts | 226° |
| 2026-04-18 01:01 | 9.41586 | -70.76027 | 8073 ft | 148 kts | 227° |
| 2026-04-18 01:01 | 9.40895 | -70.76805 | 8207 ft | 149 kts | 227° |
| 2026-04-18 01:01 | 9.40198 | -70.77593 | 8334 ft | 150 kts | 226° |
| 2026-04-18 01:02 | 9.39496 | -70.78377 | 8462 ft | 151 kts | 226° |
| 2026-04-18 01:02 | 9.38793 | -70.79169 | 8591 ft | 151 kts | 227° |
| 2026-04-18 01:02 | 9.38099 | -70.79944 | 8718 ft | 150 kts | 227° |
| 2026-04-18 01:02 | 9.37402 | -70.80731 | 8849 ft | 150 kts | 227° |
| 2026-04-18 01:03 | 9.36711 | -70.81509 | 9001 ft | 148 kts | 226° |
| 2026-04-18 01:03 | 9.36022 | -70.82283 | 9148 ft | 148 kts | 227° |
| 2026-04-18 01:03 | 9.35333 | -70.83053 | 9298 ft | 147 kts | 227° |
| 2026-04-18 01:03 | 9.34642 | -70.83825 | 9449 ft | 148 kts | 227° |
| 2026-04-18 01:04 | 9.33945 | -70.84602 | 9594 ft | 149 kts | 227° |
| 2026-04-18 01:04 | 9.33247 | -70.85386 | 9751 ft | 150 kts | 227° |
| 2026-04-18 01:04 | 9.32554 | -70.86172 | 9900 ft | 150 kts | 228° |
| 2026-04-18 01:04 | 9.31845 | -70.86963 | 9997 ft | 155 kts | 227° |
| 2026-04-18 01:05 | 9.31098 | -70.87806 | 10009 ft | 164 kts | 228° |
| 2026-04-18 01:05 | 9.30327 | -70.88682 | 10012 ft | 169 kts | 228° |
| 2026-04-18 01:05 | 9.29526 | -70.89585 | 10013 ft | 175 kts | 229° |
| 2026-04-18 01:05 | 9.28702 | -70.90516 | 10006 ft | 180 kts | 228° |
| 2026-04-18 01:06 | 9.27855 | -70.91462 | 10014 ft | 183 kts | 228° |
| 2026-04-18 01:06 | 9.27018 | -70.92405 | 10012 ft | 182 kts | 228° |
| 2026-04-18 01:06 | 9.26165 | -70.93355 | 10006 ft | 182 kts | 228° |
| 2026-04-18 01:06 | 9.25310 | -70.94311 | 10016 ft | 183 kts | 228° |
| 2026-04-18 01:07 | 9.24452 | -70.95271 | 10008 ft | 183 kts | 229° |
| 2026-04-18 01:07 | 9.23598 | -70.96236 | 10006 ft | 183 kts | 228° |
| 2026-04-18 01:07 | 9.22743 | -70.97194 | 10012 ft | 184 kts | 228° |
| 2026-04-18 01:07 | 9.21887 | -70.98153 | 10006 ft | 183 kts | 229° |
| 2026-04-18 01:08 | 9.21036 | -70.99108 | 10004 ft | 184 kts | 228° |
| 2026-04-18 01:08 | 9.20179 | -71.00063 | 10005 ft | 183 kts | 228° |
| 2026-04-18 01:08 | 9.19326 | -71.01026 | 10005 ft | 184 kts | 228° |
| 2026-04-18 01:08 | 9.18466 | -71.01983 | 10006 ft | 184 kts | 227° |
| 2026-04-18 01:09 | 9.17606 | -71.02922 | 10006 ft | 185 kts | 228° |
| 2026-04-18 01:09 | 9.16746 | -71.03891 | 10005 ft | 186 kts | 227° |
| 2026-04-18 01:09 | 9.15878 | -71.04861 | 10007 ft | 186 kts | 227° |
| 2026-04-18 01:09 | 9.15006 | -71.05837 | 10009 ft | 187 kts | 228° |
| 2026-04-18 01:10 | 9.14138 | -71.06815 | 10009 ft | 186 kts | 228° |
| 2026-04-18 01:10 | 9.13274 | -71.07785 | 10006 ft | 185 kts | 227° |
| 2026-04-18 01:10 | 9.12410 | -71.08753 | 10008 ft | 185 kts | 228° |
| 2026-04-18 01:10 | 9.11837 | -71.09394 | 10008 ft | 185 kts | 227° |
| 2026-04-18 01:11 | 9.10975 | -71.10357 | 10003 ft | 184 kts | 227° |
| 2026-04-18 01:11 | 9.10195 | -71.11381 | 9995 ft | 184 kts | 242° |
| 2026-04-18 01:11 | 9.09664 | -71.12557 | 9994 ft | 183 kts | 246° |
| 2026-04-18 01:11 | 9.09110 | -71.13719 | 9996 ft | 183 kts | 243° |
| 2026-04-18 01:12 | 9.08520 | -71.14861 | 9998 ft | 183 kts | 242° |
| 2026-04-18 01:12 | 9.07927 | -71.15999 | 10000 ft | 183 kts | 243° |
| 2026-04-18 01:12 | 9.07336 | -71.17139 | 10000 ft | 183 kts | 243° |
| 2026-04-18 01:12 | 9.06745 | -71.18280 | 10000 ft | 183 kts | 243° |
| 2026-04-18 01:13 | 9.06153 | -71.19421 | 10000 ft | 183 kts | 243° |
| 2026-04-18 01:13 | 9.05565 | -71.20559 | 10007 ft | 183 kts | 243° |
| 2026-04-18 01:13 | 9.04974 | -71.21699 | 10000 ft | 183 kts | 243° |
| 2026-04-18 01:13 | 9.04394 | -71.22818 | 9999 ft | 182 kts | 243° |
| 2026-04-18 01:14 | 9.03807 | -71.23951 | 10000 ft | 181 kts | 243° |
| 2026-04-18 01:14 | 9.03216 | -71.25093 | 9900 ft | 186 kts | 243° |
| 2026-04-18 01:14 | 9.02616 | -71.26251 | 9743 ft | 185 kts | 242° |
| 2026-04-18 01:14 | 9.02016 | -71.27406 | 9567 ft | 185 kts | 242° |
| 2026-04-18 01:15 | 9.01418 | -71.28559 | 9395 ft | 185 kts | 242° |
| 2026-04-18 01:15 | 9.00821 | -71.29711 | 9217 ft | 185 kts | 242° |
| 2026-04-18 01:15 | 9.00222 | -71.30865 | 9040 ft | 185 kts | 242° |
| 2026-04-18 01:15 | 8.99625 | -71.32020 | 8862 ft | 185 kts | 242° |
| 2026-04-18 01:16 | 8.99029 | -71.33175 | 8693 ft | 185 kts | 242° |
| 2026-04-18 01:16 | 8.98430 | -71.34331 | 8514 ft | 185 kts | 242° |
| 2026-04-18 01:16 | 8.97832 | -71.35482 | 8340 ft | 185 kts | 242° |
| 2026-04-18 01:16 | 8.97244 | -71.36617 | 8167 ft | 185 kts | 242° |
| 2026-04-18 01:17 | 8.96646 | -71.37769 | 7993 ft | 185 kts | 242° |
| 2026-04-18 01:17 | 8.96047 | -71.38925 | 7819 ft | 186 kts | 242° |
| 2026-04-18 01:17 | 8.95445 | -71.40086 | 7646 ft | 187 kts | 242° |
| 2026-04-18 01:17 | 8.94840 | -71.41254 | 7473 ft | 188 kts | 242° |
| 2026-04-18 01:18 | 8.94231 | -71.42428 | 7300 ft | 189 kts | 242° |
| 2026-04-18 01:18 | 8.93620 | -71.43607 | 7126 ft | 190 kts | 242° |
| 2026-04-18 01:18 | 8.93004 | -71.44791 | 6955 ft | 190 kts | 242° |
| 2026-04-18 01:18 | 8.92389 | -71.45976 | 6773 ft | 190 kts | 243° |
| 2026-04-18 01:19 | 8.91775 | -71.47160 | 6608 ft | 190 kts | 242° |
| 2026-04-18 01:19 | 8.91163 | -71.48338 | 6458 ft | 188 kts | 243° |
| 2026-04-18 01:19 | 8.90556 | -71.49508 | 6307 ft | 188 kts | 243° |
| 2026-04-18 01:19 | 8.89949 | -71.50678 | 6158 ft | 188 kts | 243° |
| 2026-04-18 01:20 | 8.89344 | -71.51846 | 6006 ft | 187 kts | 243° |
| 2026-04-18 01:20 | 8.88736 | -71.53010 | 5852 ft | 187 kts | 242° |
| 2026-04-18 01:20 | 8.88140 | -71.54156 | 5698 ft | 187 kts | 243° |
| 2026-04-18 01:20 | 8.87537 | -71.55321 | 5526 ft | 187 kts | 243° |
| 2026-04-18 01:21 | 8.86934 | -71.56487 | 5354 ft | 187 kts | 243° |
| 2026-04-18 01:21 | 8.86329 | -71.57651 | 5181 ft | 187 kts | 243° |
| 2026-04-18 01:21 | 8.85723 | -71.58816 | 5007 ft | 187 kts | 242° |
| 2026-04-18 01:21 | 8.85120 | -71.59978 | 4833 ft | 186 kts | 243° |
| 2026-04-18 01:22 | 8.84516 | -71.61138 | 4658 ft | 186 kts | 243° |
| 2026-04-18 01:22 | 8.83914 | -71.62295 | 4482 ft | 185 kts | 242° |
| 2026-04-18 01:22 | 8.83319 | -71.63439 | 4352 ft | 182 kts | 243° |
| 2026-04-18 01:22 | 8.82733 | -71.64568 | 4257 ft | 180 kts | 243° |
| 2026-04-18 01:23 | 8.82152 | -71.65686 | 4158 ft | 179 kts | 243° |
| 2026-04-18 01:23 | 8.81574 | -71.66801 | 4059 ft | 178 kts | 242° |
| 2026-04-18 01:23 | 8.80995 | -71.67914 | 3961 ft | 179 kts | 242° |
| 2026-04-18 01:23 | 8.80408 | -71.69041 | 3862 ft | 182 kts | 242° |
| 2026-04-18 01:24 | 8.79817 | -71.70176 | 3758 ft | 182 kts | 242° |
| 2026-04-18 01:24 | 8.79227 | -71.71305 | 3660 ft | 181 kts | 242° |
| 2026-04-18 01:24 | 8.78643 | -71.72428 | 3559 ft | 179 kts | 243° |
| 2026-04-18 01:24 | 8.78061 | -71.73545 | 3458 ft | 179 kts | 242° |
| 2026-04-18 01:25 | 8.77483 | -71.74664 | 3359 ft | 179 kts | 242° |
| 2026-04-18 01:25 | 8.76912 | -71.75763 | 3308 ft | 174 kts | 242° |
| 2026-04-18 01:25 | 8.76349 | -71.76837 | 3253 ft | 172 kts | 242° |
| 2026-04-18 01:25 | 8.75761 | -71.77872 | 3166 ft | 172 kts | 234° |
| 2026-04-18 01:26 | 8.75009 | -71.78818 | 3065 ft | 173 kts | 230° |
| 2026-04-18 01:26 | 8.74201 | -71.79715 | 2967 ft | 173 kts | 226° |
| 2026-04-18 01:26 | 8.73331 | -71.80549 | 2863 ft | 171 kts | 221° |
| 2026-04-18 01:26 | 8.72413 | -71.81312 | 2761 ft | 170 kts | 217° |
| 2026-04-18 01:27 | 8.71448 | -71.82006 | 2659 ft | 170 kts | 213° |
| 2026-04-18 01:27 | 8.70441 | -71.82626 | 2605 ft | 168 kts | 209° |
| 2026-04-18 01:27 | 8.69416 | -71.83162 | 2603 ft | 164 kts | 205° |
| 2026-04-18 01:27 | 8.68370 | -71.83623 | 2601 ft | 164 kts | 201° |
| 2026-04-18 01:28 | 8.67308 | -71.84005 | 2595 ft | 157 kts | 198° |
| 2026-04-18 01:28 | 8.66310 | -71.84292 | 2592 ft | 143 kts | 194° |
| 2026-04-18 01:28 | 8.65371 | -71.84499 | 2592 ft | 134 kts | 190° |
| 2026-04-18 01:28 | 8.64471 | -71.84646 | 2586 ft | 129 kts | 187° |
| 2026-04-18 01:29 | 8.63599 | -71.84741 | 2605 ft | 122 kts | 184° |
| 2026-04-18 01:29 | 8.62789 | -71.84725 | 2602 ft | 116 kts | 160° |
| 2026-04-18 01:29 | 8.62321 | -71.84135 | 2586 ft | 112 kts | 92° |
| 2026-04-18 01:29 | 8.62289 | -71.83379 | 2589 ft | 109 kts | 117° |
| 2026-04-18 01:30 | 8.61834 | -71.82774 | 2615 ft | 106 kts | 127° |
| 2026-04-18 01:30 | 8.61397 | -71.82206 | 2607 ft | 100 kts | 127° |
| 2026-04-18 01:30 | 8.60976 | -71.81664 | 2609 ft | 97 kts | 127° |
| 2026-04-18 01:30 | 8.60781 | -71.81039 | 2596 ft | 95 kts | 96° |
| 2026-04-18 01:31 | 8.60700 | -71.80360 | 2509 ft | 102 kts | 81° |
| 2026-04-18 01:31 | 8.60756 | -71.79609 | 2371 ft | 112 kts | 85° |
| 2026-04-18 01:31 | 8.60837 | -71.78808 | 2218 ft | 116 kts | 83° |
| 2026-04-18 01:31 | 8.60932 | -71.77988 | 2060 ft | 118 kts | 82° |
| 2026-04-18 01:32 | 8.61040 | -71.77158 | 1899 ft | 119 kts | 82° |
| 2026-04-18 01:32 | 8.61147 | -71.76327 | 1740 ft | 119 kts | 82° |
| 2026-04-18 01:32 | 8.61265 | -71.75499 | 1580 ft | 118 kts | 81° |
| 2026-04-18 01:32 | 8.61376 | -71.74680 | 1424 ft | 117 kts | 82° |
| 2026-04-18 01:33 | 8.61493 | -71.73875 | 1270 ft | 117 kts | 82° |
| 2026-04-18 01:33 | 8.61604 | -71.73061 | 1114 ft | 117 kts | 81° |
| 2026-04-18 01:33 | 8.61719 | -71.72250 | 958 ft | 116 kts | 82° |
| 2026-04-18 01:33 | 8.61833 | -71.71441 | 804 ft | 116 kts | 81° |
| 2026-04-18 01:34 | 8.61944 | -71.70633 | 661 ft | 115 kts | 82° |
| 2026-04-18 01:34 | 8.62059 | -71.69842 | 500 ft | 108 kts | 82° |
| 2026-04-18 01:34 | 8.62148 | -71.69139 | 417 ft | 93 kts | 82° |
| 2026-04-18 01:34 | 8.62237 | -71.68526 | 312 ft | 84 kts | 81° |
| 2026-04-18 01:35 | 8.62313 | -71.67990 | 278 ft | 69 kts | 83° |
| 2026-04-18 01:35 | 8.62365 | -71.67607 | 277 ft | 41 kts | 83° |
| 2026-04-18 01:35 | 8.62402 | -71.67369 | 279 ft | 33 kts | 82° |
| 2026-04-18 01:35 | 8.62434 | -71.67124 | 279 ft | 38 kts | 82° |
| 2026-04-18 01:36 | 8.62472 | -71.66859 | 280 ft | 38 kts | 82° |
| 2026-04-18 01:36 | 8.62505 | -71.66620 | 278 ft | 33 kts | 82° |
| 2026-04-18 01:36 | 8.62531 | -71.66435 | 279 ft | 26 kts | 83° |
| 2026-04-18 01:36 | 8.62486 | -71.66336 | 279 ft | 16 kts | 172° |
| 2026-04-18 01:37 | 8.62430 | -71.66328 | 278 ft | 2 kts | 169° |
| 2026-04-18 01:37 | 8.62410 | -71.66325 | 278 ft | 1 kts | 172° |
| 2026-04-18 01:37 | 8.62391 | -71.66312 | 278 ft | 4 kts | 107° |
| 2026-04-18 01:37 | 8.62395 | -71.66252 | 278 ft | 12 kts | 81° |
| 2026-04-18 01:38 | 8.62372 | -71.66205 | 278 ft | 8 kts | 173° |
| 2026-04-18 01:38 | 8.62346 | -71.66201 | 278 ft | 2 kts | 166° |
| 2026-04-18 01:38 | 8.62335 | -71.66200 | 278 ft | 0 kts | 175° |